Decoded Metar for UIII (IRKUTSK in RUSSIA) (IATA:IKT) | Meteo·Mobile Aviation Weather
aviador You're here:

UIII Decoded Metar

IRKUTSK in RUSSIA
Report Time2019-01-19 15:30:00
UTC Time2019-01-19 16:10:28
Flight Rules vfr VFR
Wind130° at 6 kt
W.Decomp.*RWY 12: 5.8 kt HW 1.5 kt RCW
W.Rank130° ranks 20
Current wind is above 130° avg. (5.5)
Visibility9999 m
Phenomena:N/A
Clouds:N/A
Expected CloudBase > 2,400 ft AGL from Temp-Dew spread
CeilingNone
Temp-9°C (ISA -21)
Dew Point-15°C (62% RH)
AAT-14.5°C
QNH1022 hPa
Density Alt-1,158 ft
Elevation1,683 ft
Report Wrong Elevation
Raw Report
UIII 191530Z 13003MPS CAVOK M09/M15 Q1022 R12/810550 NOSIG RMK
QFE724/0966=

Extra information for UIII:More info

Metar Taf Metar & Taf Last 4 Metars F.Rules Stats Wind Profile Meteogram Temp Stats Airport Information Weather charts Add Link Nearby VenuesMetar ALERT Operation Metar Decoded Social comments